createdAt,value
2022-08-03T00:00:50.660Z,0
2022-08-03T00:01:56.863Z,0
2022-08-03T00:03:03.089Z,0
2022-08-03T00:04:09.255Z,0
2022-08-03T00:05:15.452Z,0
2022-08-03T00:06:21.655Z,0
2022-08-03T00:07:27.857Z,0
2022-08-03T00:08:34.050Z,0
2022-08-03T00:09:40.243Z,0
2022-08-03T00:10:46.448Z,0
2022-08-03T00:11:52.651Z,0
2022-08-03T00:12:58.884Z,0
2022-08-03T00:14:05.063Z,0
2022-08-03T00:15:11.262Z,0
2022-08-03T00:16:16.466Z,0
2022-08-03T00:17:22.672Z,0
2022-08-03T00:18:28.873Z,0
2022-08-03T00:19:35.074Z,0
2022-08-03T00:20:41.260Z,0
2022-08-03T00:21:47.467Z,0
2022-08-03T00:22:53.658Z,0
2022-08-03T00:23:59.860Z,0
2022-08-03T00:25:06.051Z,0
2022-08-03T00:26:12.257Z,0
2022-08-03T00:27:18.465Z,0
2022-08-03T00:28:24.657Z,0
2022-08-03T00:29:30.872Z,0
2022-08-03T00:30:37.065Z,0
2022-08-03T00:31:43.258Z,0
2022-08-03T00:32:49.472Z,0
2022-08-03T00:33:55.672Z,0
2022-08-03T00:35:01.867Z,0
2022-08-03T00:36:08.076Z,0
2022-08-03T00:37:14.284Z,0
2022-08-03T00:38:20.482Z,0
2022-08-03T00:39:26.683Z,0
2022-08-03T00:40:32.879Z,0
2022-08-03T00:41:39.095Z,0
2022-08-03T00:42:45.301Z,0
2022-08-03T00:43:51.503Z,0
2022-08-03T00:44:57.708Z,0
2022-08-03T00:46:03.938Z,0
2022-08-03T00:47:10.107Z,0
2022-08-03T00:48:15.325Z,0
2022-08-03T00:49:21.530Z,0
2022-08-03T00:50:27.730Z,0
2022-08-03T00:51:33.939Z,0
2022-08-03T00:52:40.136Z,0
2022-08-03T00:53:46.352Z,0
2022-08-03T00:54:52.538Z,0
2022-08-03T00:55:58.738Z,0
2022-08-03T00:57:04.970Z,0
2022-08-03T00:58:11.169Z,0
2022-08-03T00:59:17.381Z,0
2022-08-03T01:00:23.591Z,0
2022-08-03T01:01:29.820Z,0
2022-08-03T01:02:36.004Z,0
2022-08-03T01:03:42.258Z,0
2022-08-03T01:04:48.417Z,0
2022-08-03T01:05:54.645Z,0
2022-08-03T01:07:00.817Z,0
2022-08-03T01:08:07.053Z,0
2022-08-03T01:09:13.234Z,0
2022-08-03T01:10:19.447Z,0
2022-08-03T01:11:25.652Z,0
2022-08-03T01:12:31.869Z,0
2022-08-03T01:13:38.066Z,0
2022-08-03T01:14:44.287Z,0
2022-08-03T01:15:50.489Z,0
2022-08-03T01:16:56.687Z,0
2022-08-03T01:18:02.904Z,0
2022-08-03T01:19:09.107Z,0
2022-08-03T01:20:15.320Z,0
2022-08-03T01:21:21.516Z,0
2022-08-03T01:22:27.712Z,0
2022-08-03T01:23:33.972Z,0
2022-08-03T01:24:40.138Z,0
2022-08-03T01:25:46.355Z,0
2022-08-03T01:26:52.549Z,0
2022-08-03T01:27:58.750Z,0
2022-08-03T01:29:05.061Z,0
2022-08-03T01:30:11.328Z,0
2022-08-03T01:31:16.589Z,0
2022-08-03T01:32:22.819Z,0
2022-08-03T01:33:29.003Z,0
2022-08-03T01:34:35.210Z,0
2022-08-03T01:35:41.419Z,0
2022-08-03T01:36:47.611Z,0
2022-08-03T01:37:53.826Z,0
2022-08-03T01:39:00.027Z,0
2022-08-03T01:40:06.229Z,0
2022-08-03T01:41:12.432Z,0
2022-08-03T01:42:18.637Z,0
2022-08-03T01:43:24.851Z,0
2022-08-03T01:44:31.083Z,0
2022-08-03T01:45:37.269Z,0
2022-08-03T01:46:43.490Z,0
2022-08-03T01:47:49.692Z,0
2022-08-03T01:48:55.908Z,0
2022-08-03T01:50:02.109Z,0
2022-08-03T01:51:08.320Z,0
2022-08-03T01:52:14.529Z,0
2022-08-03T01:53:20.749Z,0
2022-08-03T01:54:26.968Z,0
2022-08-03T01:55:33.160Z,0
2022-08-03T01:56:39.368Z,0
2022-08-03T01:57:45.576Z,0
2022-08-03T01:58:51.860Z,0
2022-08-03T01:59:57.125Z,0
2022-08-03T02:01:03.363Z,0
2022-08-03T02:02:09.537Z,0
2022-08-03T02:03:15.748Z,0
2022-08-03T02:04:21.938Z,0
2022-08-03T02:05:28.140Z,0
2022-08-03T02:06:34.347Z,0
2022-08-03T02:07:40.554Z,0
2022-08-03T02:08:46.747Z,0
2022-08-03T02:09:52.961Z,0
2022-08-03T02:10:59.152Z,0
2022-08-03T02:12:05.369Z,0
2022-08-03T02:13:11.566Z,0
2022-08-03T02:14:17.770Z,0
2022-08-03T02:15:23.985Z,0
2022-08-03T02:16:30.194Z,0
2022-08-03T02:17:36.406Z,0
2022-08-03T02:18:42.628Z,0
2022-08-03T02:19:48.834Z,0
2022-08-03T02:20:55.047Z,0
2022-08-03T02:22:01.257Z,0
2022-08-03T02:23:07.464Z,0
2022-08-03T02:24:13.665Z,0
2022-08-03T02:25:19.865Z,0
2022-08-03T02:26:26.073Z,0
2022-08-03T02:27:32.360Z,0
2022-08-03T02:28:37.650Z,0
2022-08-03T02:29:43.857Z,0
2022-08-03T02:30:50.066Z,0
2022-08-03T02:31:56.312Z,0
2022-08-03T02:33:02.515Z,0
2022-08-03T02:34:08.701Z,0
2022-08-03T02:35:14.919Z,0
2022-08-03T02:36:21.137Z,0
2022-08-03T02:37:27.335Z,0
2022-08-03T02:38:33.544Z,0
2022-08-03T02:39:39.758Z,0
2022-08-03T02:40:45.980Z,0
2022-08-03T02:41:52.186Z,0
2022-08-03T02:42:58.390Z,0
2022-08-03T02:44:04.598Z,0
2022-08-03T02:45:10.827Z,0
2022-08-03T02:46:17.024Z,0
2022-08-03T02:47:23.243Z,0
2022-08-03T02:48:29.458Z,0
2022-08-03T02:49:35.663Z,0
2022-08-03T02:50:41.866Z,0
2022-08-03T02:51:48.079Z,0
2022-08-03T02:52:54.299Z,0
2022-08-03T02:54:00.502Z,0
2022-08-03T02:55:06.715Z,0
2022-08-03T02:56:13.021Z,0
2022-08-03T02:57:18.298Z,0
2022-08-03T02:58:24.512Z,0
2022-08-03T02:59:30.730Z,0
2022-08-03T03:00:36.939Z,0
2022-08-03T03:01:43.147Z,0
2022-08-03T03:02:49.361Z,0
2022-08-03T03:03:55.585Z,0
2022-08-03T03:05:01.793Z,0
2022-08-03T03:06:08.021Z,0
2022-08-03T03:07:14.224Z,0
2022-08-03T03:08:20.443Z,0
2022-08-03T03:09:26.651Z,0
2022-08-03T03:10:32.861Z,0
2022-08-03T03:11:39.084Z,0
2022-08-03T03:12:45.297Z,0
2022-08-03T03:13:51.503Z,0
2022-08-03T03:14:57.726Z,0
2022-08-03T03:16:03.937Z,0
2022-08-03T03:17:10.139Z,0
2022-08-03T03:18:16.360Z,0
2022-08-03T03:19:22.568Z,0
2022-08-03T03:20:28.789Z,0
2022-08-03T03:21:35.011Z,0
2022-08-03T03:22:41.219Z,0
2022-08-03T03:23:47.435Z,0
2022-08-03T03:24:53.750Z,0
2022-08-03T03:25:59.025Z,0
2022-08-03T03:27:05.244Z,0
2022-08-03T03:28:11.445Z,0
2022-08-03T03:29:17.656Z,5
2022-08-03T03:30:23.882Z,5
2022-08-03T03:31:30.081Z,5
2022-08-03T03:32:36.304Z,5
2022-08-03T03:33:42.528Z,5
2022-08-03T03:34:48.727Z,5
2022-08-03T03:35:54.943Z,5
2022-08-03T03:37:01.162Z,5
2022-08-03T03:38:07.378Z,11
2022-08-03T03:39:13.587Z,11
2022-08-03T03:40:19.808Z,11
2022-08-03T03:41:26.026Z,11
2022-08-03T03:42:32.232Z,11
2022-08-03T03:43:38.473Z,11
2022-08-03T03:44:44.675Z,16
2022-08-03T03:45:50.908Z,16
2022-08-03T03:46:57.116Z,16
2022-08-03T03:48:03.327Z,16
2022-08-03T03:49:09.548Z,16
2022-08-03T03:50:15.773Z,22
2022-08-03T03:51:21.985Z,22
2022-08-03T03:52:28.211Z,22
2022-08-03T03:53:34.509Z,22
2022-08-03T03:54:39.796Z,28
2022-08-03T03:55:46.007Z,28
2022-08-03T03:56:52.220Z,28
2022-08-03T03:57:58.441Z,33
2022-08-03T03:59:04.665Z,33
2022-08-03T04:00:10.864Z,39
2022-08-03T04:01:17.094Z,39
2022-08-03T04:02:23.307Z,39
2022-08-03T04:03:29.519Z,45
2022-08-03T04:04:35.726Z,45
2022-08-03T04:05:41.948Z,45
2022-08-03T04:06:48.158Z,50
2022-08-03T04:07:54.373Z,50
2022-08-03T04:09:00.573Z,50
2022-08-03T04:10:06.788Z,56
2022-08-03T04:11:12.990Z,56
2022-08-03T04:12:19.212Z,56
2022-08-03T04:13:25.414Z,61
2022-08-03T04:14:31.640Z,61
2022-08-03T04:15:37.836Z,61
2022-08-03T04:16:44.064Z,67
2022-08-03T04:17:50.266Z,67
2022-08-03T04:18:56.495Z,73
2022-08-03T04:20:02.706Z,73
2022-08-03T04:21:08.894Z,73
2022-08-03T04:22:15.202Z,78
2022-08-03T04:23:20.491Z,78
2022-08-03T04:24:26.697Z,78
2022-08-03T04:25:32.905Z,84
2022-08-03T04:26:39.117Z,84
2022-08-03T04:27:45.325Z,90
2022-08-03T04:28:51.541Z,90
2022-08-03T04:29:57.735Z,90
2022-08-03T04:31:03.936Z,95
2022-08-03T04:32:10.152Z,95
2022-08-03T04:33:16.365Z,95
2022-08-03T04:34:22.574Z,101
2022-08-03T04:35:28.780Z,101
2022-08-03T04:36:34.977Z,106
2022-08-03T04:37:41.194Z,106
2022-08-03T04:38:47.389Z,106
2022-08-03T04:39:53.606Z,112
2022-08-03T04:40:59.807Z,112
2022-08-03T04:42:06.003Z,118
2022-08-03T04:43:12.204Z,118
2022-08-03T04:44:18.419Z,123
2022-08-03T04:45:24.613Z,123
2022-08-03T04:46:30.796Z,129
2022-08-03T04:47:37.007Z,151
2022-08-03T04:48:43.213Z,315
2022-08-03T04:49:49.400Z,331
2022-08-03T04:50:54.624Z,292
2022-08-03T04:52:00.838Z,388
2022-08-03T04:53:07.022Z,556
2022-08-03T04:54:12.240Z,821
2022-08-03T04:55:18.434Z,984
2022-08-03T04:56:23.636Z,1035
2022-08-03T04:57:29.815Z,1063
2022-08-03T04:58:36.003Z,1006
2022-08-03T04:59:42.189Z,1029
2022-08-03T05:00:48.331Z,1040
2022-08-03T05:01:54.492Z,1074
2022-08-03T05:03:00.637Z,1080
2022-08-03T05:04:06.782Z,1051
2022-08-03T05:05:12.913Z,961
2022-08-03T05:06:19.054Z,810
2022-08-03T05:07:25.153Z,528
2022-08-03T05:08:31.263Z,483
2022-08-03T05:09:37.363Z,405
2022-08-03T05:10:43.458Z,275
2022-08-03T05:11:49.552Z,225
2022-08-03T05:12:55.662Z,230
2022-08-03T05:14:01.760Z,405
2022-08-03T05:15:07.856Z,888
2022-08-03T05:16:13.951Z,1243
2022-08-03T05:17:20.047Z,1288
2022-08-03T05:18:26.126Z,1198
2022-08-03T05:19:32.215Z,1226
2022-08-03T05:20:38.303Z,1265
2022-08-03T05:21:44.371Z,1282
2022-08-03T05:22:50.445Z,1327
2022-08-03T05:23:56.501Z,1276
2022-08-03T05:25:02.557Z,1383
2022-08-03T05:26:08.622Z,1321
2022-08-03T05:27:14.674Z,1383
2022-08-03T05:28:20.733Z,1389
2022-08-03T05:29:26.761Z,1378
2022-08-03T05:30:32.788Z,1518
2022-08-03T05:31:38.823Z,1530
2022-08-03T05:32:44.835Z,1440
2022-08-03T05:33:50.852Z,1490
2022-08-03T05:34:56.870Z,1558
2022-08-03T05:36:02.861Z,1451
2022-08-03T05:37:08.934Z,1693
2022-08-03T05:38:15.015Z,1681
2022-08-03T05:39:21.086Z,1608
2022-08-03T05:40:27.151Z,1563
2022-08-03T05:41:33.203Z,1591
2022-08-03T05:42:39.261Z,1670
2022-08-03T05:43:45.314Z,1681
2022-08-03T05:44:51.367Z,1687
2022-08-03T05:45:57.415Z,1743
2022-08-03T05:47:03.475Z,1760
2022-08-03T05:48:09.510Z,1665
2022-08-03T05:49:15.557Z,1653
2022-08-03T05:50:21.593Z,1743
2022-08-03T05:51:27.759Z,1721
2022-08-03T05:52:33.915Z,1726
2022-08-03T05:53:40.069Z,1816
2022-08-03T05:54:46.238Z,1698
2022-08-03T05:55:52.411Z,1918
2022-08-03T05:56:58.555Z,2120
2022-08-03T05:58:04.688Z,1951
2022-08-03T05:59:10.823Z,1985
2022-08-03T06:00:16.974Z,1940
2022-08-03T06:01:23.121Z,2008
2022-08-03T06:02:29.249Z,2092
2022-08-03T06:03:35.408Z,1991
2022-08-03T06:04:41.522Z,1906
2022-08-03T06:07:16.263Z,1991
2022-08-03T06:08:21.510Z,2216
2022-08-03T06:09:27.451Z,2070
2022-08-03T06:10:33.391Z,1676
2022-08-03T06:11:39.318Z,1631
2022-08-03T06:12:45.246Z,2002
2022-08-03T06:13:51.176Z,1912
2022-08-03T06:14:57.103Z,2115
2022-08-03T06:16:03.038Z,2165
2022-08-03T06:17:08.961Z,2109
2022-08-03T06:18:14.886Z,1968
2022-08-03T06:19:20.818Z,1935
2022-08-03T06:20:26.725Z,1901
2022-08-03T06:21:32.648Z,1968
2022-08-03T06:22:38.578Z,2266
2022-08-03T06:23:44.481Z,2255
2022-08-03T06:24:50.393Z,2238
2022-08-03T06:25:56.320Z,2210
2022-08-03T06:27:02.218Z,2064
2022-08-03T06:28:08.128Z,2109
2022-08-03T06:29:14.044Z,2261
2022-08-03T06:30:19.949Z,2238
2022-08-03T06:31:25.860Z,2148
2022-08-03T06:32:31.762Z,2266
2022-08-03T06:33:37.672Z,2176
2022-08-03T06:34:43.594Z,2143
2022-08-03T06:35:49.559Z,2266
2022-08-03T06:36:55.528Z,2317
2022-08-03T06:38:01.519Z,2266
2022-08-03T06:39:07.520Z,2351
2022-08-03T06:40:13.472Z,2176
2022-08-03T06:41:19.450Z,2103
2022-08-03T06:42:25.452Z,2283
2022-08-03T06:43:31.426Z,2103
2022-08-03T06:44:37.380Z,2323
2022-08-03T06:45:43.364Z,2261
2022-08-03T06:46:49.332Z,2109
2022-08-03T06:47:55.299Z,2047
2022-08-03T06:49:01.294Z,2210
2022-08-03T06:50:07.363Z,2362
2022-08-03T06:51:13.436Z,2300
2022-08-03T06:52:19.549Z,2351
2022-08-03T06:53:25.613Z,2373
2022-08-03T06:54:31.683Z,2250
2022-08-03T06:55:37.751Z,2193
2022-08-03T06:56:43.828Z,2362
2022-08-03T06:57:49.929Z,2261
2022-08-03T06:58:55.978Z,2373
2022-08-03T07:00:02.053Z,2250
2022-08-03T07:01:08.107Z,2351
2022-08-03T07:02:14.173Z,2570
2022-08-03T07:03:20.678Z,2407
2022-08-03T07:04:26.546Z,2233
2022-08-03T07:05:32.865Z,2171
2022-08-03T07:06:39.168Z,2278
2022-08-03T07:07:45.471Z,2548
2022-08-03T07:08:51.786Z,2385
2022-08-03T07:09:58.084Z,2441
2022-08-03T07:11:04.403Z,2418
2022-08-03T07:12:10.703Z,2446
2022-08-03T07:13:17.018Z,2520
2022-08-03T07:14:23.321Z,2536
2022-08-03T07:15:29.634Z,2407
2022-08-03T07:16:35.942Z,2396
2022-08-03T07:17:42.261Z,1631
2022-08-03T07:21:03.669Z,2536
2022-08-03T07:22:57.165Z,2266
2022-08-03T07:24:03.029Z,2176
2022-08-03T07:25:08.886Z,2025
2022-08-03T07:26:14.753Z,1918
2022-08-03T07:27:20.618Z,2092
2022-08-03T07:28:26.471Z,2210
2022-08-03T07:29:32.326Z,2266
2022-08-03T07:30:38.210Z,2216
2022-08-03T07:31:44.054Z,2025
2022-08-03T07:32:49.936Z,2278
2022-08-03T07:33:55.791Z,1929
2022-08-03T07:35:01.651Z,2233
2022-08-03T07:36:07.524Z,2565
2022-08-03T07:37:13.379Z,2497
2022-08-03T07:38:19.245Z,2463
2022-08-03T07:39:25.118Z,2469
2022-08-03T07:40:30.970Z,2514
2022-08-03T07:41:36.839Z,2345
2022-08-03T07:42:42.707Z,2351
2022-08-03T07:43:48.564Z,2115
2022-08-03T07:44:54.449Z,2221
2022-08-03T07:46:00.290Z,2520
2022-08-03T07:47:06.163Z,2514
2022-08-03T07:48:11.997Z,2345
2022-08-03T07:49:17.847Z,2193
2022-08-03T07:50:23.783Z,2176
2022-08-03T07:51:29.717Z,2233
2022-08-03T07:52:35.647Z,2193
2022-08-03T07:53:41.587Z,2025
2022-08-03T07:54:47.517Z,2143
2022-08-03T07:55:53.454Z,2109
2022-08-03T07:56:59.404Z,2182
2022-08-03T07:58:05.321Z,2255
2022-08-03T07:59:11.257Z,2311
2022-08-03T08:00:17.200Z,2160
2022-08-03T08:01:23.133Z,2205
2022-08-03T08:02:29.073Z,2435
2022-08-03T08:03:35.010Z,2311
2022-08-03T08:04:41.075Z,2390
2022-08-03T08:05:47.143Z,2430
2022-08-03T08:06:53.233Z,2401
2022-08-03T08:07:59.265Z,2660
2022-08-03T08:09:05.330Z,2497
2022-08-03T08:10:11.380Z,2103
2022-08-03T08:11:17.455Z,2368
2022-08-03T08:12:23.512Z,2238
2022-08-03T08:13:29.574Z,2306
2022-08-03T08:14:35.633Z,2311
2022-08-03T08:15:41.698Z,2283
2022-08-03T08:16:47.756Z,2385
2022-08-03T08:17:53.818Z,2632
2022-08-03T08:20:28.363Z,2570
2022-08-03T08:21:34.675Z,2452
2022-08-03T08:22:41.004Z,2126
2022-08-03T08:23:47.317Z,2131
2022-08-03T08:24:53.614Z,2295
2022-08-03T08:25:59.926Z,2418
2022-08-03T08:27:06.226Z,2649
2022-08-03T08:28:12.530Z,2452
2022-08-03T08:29:18.863Z,2531
2022-08-03T08:30:25.145Z,2508
2022-08-03T08:31:31.449Z,2401
2022-08-03T08:32:37.761Z,2458
2022-08-03T08:33:44.078Z,2311
2022-08-03T08:37:05.505Z,2351
2022-08-03T08:38:59.018Z,2345
2022-08-03T08:40:04.885Z,2199
2022-08-03T08:41:10.766Z,2283
2022-08-03T08:42:16.637Z,2295
2022-08-03T08:43:22.493Z,2356
2022-08-03T08:44:28.344Z,2250
2022-08-03T08:45:34.238Z,2424
2022-08-03T08:46:40.102Z,2373
2022-08-03T08:47:45.952Z,2340
2022-08-03T08:48:51.847Z,2345
2022-08-03T08:49:57.695Z,2272
2022-08-03T08:51:03.578Z,2210
2022-08-03T08:52:09.442Z,2441
2022-08-03T08:53:15.318Z,2131
2022-08-03T08:54:21.188Z,1974
2022-08-03T08:55:27.073Z,1794
2022-08-03T08:56:32.926Z,1980
2022-08-03T08:57:38.814Z,2025
2022-08-03T08:58:44.673Z,1996
2022-08-03T08:59:50.542Z,2323
2022-08-03T09:00:56.426Z,2385
2022-08-03T09:02:02.305Z,2373
2022-08-03T09:03:08.174Z,2176
2022-08-03T09:04:14.045Z,2233
2022-08-03T09:05:19.914Z,2632
2022-08-03T09:06:25.843Z,2683
2022-08-03T09:07:31.816Z,2368
2022-08-03T09:08:37.751Z,2182
2022-08-03T09:09:43.716Z,2115
2022-08-03T09:10:49.601Z,1721
2022-08-03T09:11:55.545Z,1935
2022-08-03T09:13:01.487Z,2351
2022-08-03T09:14:07.416Z,2075
2022-08-03T09:15:13.355Z,2013
2022-08-03T09:16:19.316Z,1968
2022-08-03T09:17:25.252Z,2025
2022-08-03T09:18:31.200Z,1698
2022-08-03T09:19:37.132Z,1580
2022-08-03T09:20:43.223Z,1856
2022-08-03T09:21:49.297Z,1850
2022-08-03T09:22:55.364Z,2008
2022-08-03T09:24:01.458Z,1974
2022-08-03T09:25:07.515Z,2233
2022-08-03T09:26:13.579Z,2289
2022-08-03T09:27:19.653Z,2154
2022-08-03T09:28:25.736Z,2070
2022-08-03T09:29:31.810Z,1980
2022-08-03T09:30:37.894Z,2025
2022-08-03T09:31:43.969Z,2025
2022-08-03T09:32:50.055Z,1946
2022-08-03T09:33:56.130Z,1901
2022-08-03T09:35:02.445Z,2053
2022-08-03T09:36:08.773Z,2002
2022-08-03T09:37:15.116Z,1906
2022-08-03T09:38:21.437Z,1974
2022-08-03T09:39:27.764Z,2036
2022-08-03T09:40:34.082Z,2081
2022-08-03T09:41:40.397Z,2025
2022-08-03T09:42:46.739Z,2047
2022-08-03T09:43:53.066Z,1867
2022-08-03T09:44:59.412Z,1951
2022-08-03T09:46:05.751Z,1861
2022-08-03T09:47:12.092Z,1901
2022-08-03T09:48:18.437Z,1923
2022-08-03T09:51:43.214Z,2227
2022-08-03T09:53:33.519Z,1923
2022-08-03T09:54:39.412Z,2019
2022-08-03T09:55:45.309Z,2137
2022-08-03T09:56:51.214Z,2261
2022-08-03T09:57:57.104Z,2070
2022-08-03T09:59:03.014Z,1794
2022-08-03T10:00:08.896Z,1946
2022-08-03T10:01:14.802Z,2126
2022-08-03T10:02:20.690Z,2109
2022-08-03T10:03:26.584Z,1918
2022-08-03T10:04:32.482Z,1878
2022-08-03T10:05:38.377Z,1878
2022-08-03T10:06:44.285Z,1833
2022-08-03T10:07:50.195Z,1760
2022-08-03T10:08:56.082Z,1344
2022-08-03T10:10:02.013Z,759
2022-08-03T10:11:07.902Z,466
2022-08-03T10:12:13.815Z,433
2022-08-03T10:13:19.728Z,421
2022-08-03T10:14:25.637Z,399
2022-08-03T10:15:31.545Z,410
2022-08-03T10:16:37.457Z,416
2022-08-03T10:17:43.412Z,410
2022-08-03T10:18:49.292Z,410
2022-08-03T10:19:55.211Z,410
2022-08-03T10:21:01.199Z,405
2022-08-03T10:22:07.200Z,393
2022-08-03T10:23:13.195Z,388
2022-08-03T10:24:19.180Z,393
2022-08-03T10:25:25.181Z,388
2022-08-03T10:26:31.212Z,382
2022-08-03T10:27:37.207Z,376
2022-08-03T10:28:43.211Z,376
2022-08-03T10:29:49.214Z,393
2022-08-03T10:30:55.218Z,399
2022-08-03T10:32:01.242Z,399
2022-08-03T10:33:07.230Z,393
2022-08-03T10:34:13.234Z,399
2022-08-03T10:35:19.359Z,382
2022-08-03T10:36:25.479Z,382
2022-08-03T10:37:31.613Z,382
2022-08-03T10:38:37.739Z,382
2022-08-03T10:39:43.864Z,371
2022-08-03T10:40:49.981Z,365
2022-08-03T10:41:56.105Z,376
2022-08-03T10:43:02.235Z,376
2022-08-03T10:44:08.352Z,371
2022-08-03T10:45:14.473Z,360
2022-08-03T10:46:20.608Z,360
2022-08-03T10:47:26.720Z,371
2022-08-03T10:48:32.854Z,348
2022-08-03T10:51:07.530Z,343
2022-08-03T10:52:12.785Z,337
2022-08-03T10:53:18.708Z,343
2022-08-03T10:54:24.610Z,343
2022-08-03T10:55:30.536Z,343
2022-08-03T10:56:36.472Z,348
2022-08-03T10:57:42.419Z,337
2022-08-03T10:58:48.300Z,337
2022-08-03T10:59:54.229Z,343
2022-08-03T11:01:00.148Z,354
2022-08-03T11:02:06.079Z,354
2022-08-03T11:03:12.010Z,354
2022-08-03T11:04:17.958Z,348
2022-08-03T11:05:23.859Z,348
2022-08-03T11:06:29.790Z,343
2022-08-03T11:07:35.729Z,343
2022-08-03T11:08:41.674Z,337
2022-08-03T11:09:47.571Z,337
2022-08-03T11:10:53.502Z,337
2022-08-03T11:11:59.430Z,320
2022-08-03T11:13:05.349Z,337
2022-08-03T11:14:11.275Z,343
2022-08-03T11:15:17.218Z,343
2022-08-03T11:16:23.138Z,337
2022-08-03T11:17:29.090Z,331
2022-08-03T11:18:35.010Z,331
2022-08-03T11:19:41.015Z,326
2022-08-03T11:20:47.031Z,326
2022-08-03T11:21:53.032Z,320
2022-08-03T11:22:59.052Z,309
2022-08-03T11:24:05.066Z,315
2022-08-03T11:25:11.057Z,309
2022-08-03T11:26:17.065Z,320
2022-08-03T11:27:23.082Z,320
2022-08-03T11:28:29.109Z,315
2022-08-03T11:29:35.095Z,315
2022-08-03T11:30:41.103Z,315
2022-08-03T11:31:47.111Z,315
2022-08-03T11:32:53.118Z,309
2022-08-03T11:33:59.250Z,309
2022-08-03T11:35:05.386Z,309
2022-08-03T11:36:11.536Z,309
2022-08-03T11:37:17.681Z,309
2022-08-03T11:38:23.779Z,303
2022-08-03T11:39:29.917Z,303
2022-08-03T11:40:36.053Z,298
2022-08-03T11:41:42.168Z,292
2022-08-03T11:42:48.306Z,298
2022-08-03T11:43:54.425Z,303
2022-08-03T11:45:00.554Z,303
2022-08-03T11:46:06.690Z,303
2022-08-03T11:47:12.885Z,303
2022-08-03T11:50:09.496Z,303
2022-08-03T11:51:14.759Z,303
2022-08-03T11:52:20.685Z,298
2022-08-03T11:53:26.619Z,298
2022-08-03T11:54:32.538Z,298
2022-08-03T11:55:38.472Z,298
2022-08-03T11:56:44.408Z,292
2022-08-03T11:57:50.357Z,292
2022-08-03T11:58:56.269Z,303
2022-08-03T12:00:02.208Z,298
2022-08-03T12:01:08.133Z,303
2022-08-03T12:02:14.057Z,298
2022-08-03T12:03:19.978Z,292
2022-08-03T12:04:25.925Z,275
2022-08-03T12:05:31.846Z,286
2022-08-03T12:06:37.785Z,275
2022-08-03T12:07:43.718Z,286
2022-08-03T12:08:49.679Z,286
2022-08-03T12:09:55.578Z,292
2022-08-03T12:11:01.508Z,292
2022-08-03T12:12:07.435Z,292
2022-08-03T12:13:13.380Z,298
2022-08-03T12:14:19.307Z,286
2022-08-03T12:15:25.223Z,292
2022-08-03T12:16:31.161Z,292
2022-08-03T12:17:37.097Z,298
2022-08-03T12:18:43.091Z,298
2022-08-03T12:19:49.101Z,298
2022-08-03T12:20:55.095Z,298
2022-08-03T12:22:01.097Z,286
2022-08-03T12:23:07.103Z,281
2022-08-03T12:24:13.137Z,286
2022-08-03T12:25:19.109Z,292
2022-08-03T12:26:25.109Z,292
2022-08-03T12:27:31.100Z,281
2022-08-03T12:28:37.106Z,286
2022-08-03T12:29:43.115Z,303
2022-08-03T12:30:49.119Z,298
2022-08-03T12:31:55.104Z,270
2022-08-03T12:33:01.254Z,253
2022-08-03T12:34:07.378Z,247
2022-08-03T12:35:13.506Z,264
2022-08-03T12:36:19.629Z,264
2022-08-03T12:37:25.752Z,270
2022-08-03T12:38:31.885Z,270
2022-08-03T12:39:38.011Z,286
2022-08-03T12:40:44.137Z,270
2022-08-03T12:41:50.269Z,292
2022-08-03T12:42:56.413Z,298
2022-08-03T12:44:02.530Z,298
2022-08-03T12:45:08.664Z,298
2022-08-03T12:46:14.785Z,303
2022-08-03T12:48:49.502Z,275
2022-08-03T12:49:54.792Z,281
2022-08-03T12:51:00.687Z,281
2022-08-03T12:52:06.613Z,281
2022-08-03T12:53:12.544Z,275
2022-08-03T12:54:18.478Z,286
2022-08-03T12:55:24.400Z,286
2022-08-03T12:56:30.336Z,286
2022-08-03T12:57:36.255Z,292
2022-08-03T12:58:42.179Z,286
2022-08-03T12:59:48.111Z,270
2022-08-03T13:00:54.044Z,275
2022-08-03T13:01:59.965Z,264
2022-08-03T13:03:05.915Z,253
2022-08-03T13:04:11.833Z,270
2022-08-03T13:05:17.775Z,286
2022-08-03T13:06:23.732Z,286
2022-08-03T13:07:29.636Z,286
2022-08-03T13:08:35.572Z,286
2022-08-03T13:09:41.505Z,292
2022-08-03T13:10:47.443Z,286
2022-08-03T13:11:53.377Z,292
2022-08-03T13:12:59.333Z,292
2022-08-03T13:14:05.247Z,286
2022-08-03T13:15:11.175Z,264
2022-08-03T13:16:17.094Z,264
2022-08-03T13:17:23.132Z,258
2022-08-03T13:18:29.112Z,258
2022-08-03T13:19:35.127Z,258
2022-08-03T13:20:41.110Z,270
2022-08-03T13:21:47.112Z,270
2022-08-03T13:22:53.109Z,258
2022-08-03T13:23:59.103Z,247
2022-08-03T13:25:05.117Z,236
2022-08-03T13:26:11.116Z,247
2022-08-03T13:27:17.136Z,253
2022-08-03T13:28:23.151Z,241
2022-08-03T13:29:29.145Z,253
2022-08-03T13:30:35.153Z,241
2022-08-03T13:31:41.291Z,253
2022-08-03T13:32:47.423Z,258
2022-08-03T13:33:53.568Z,258
2022-08-03T13:34:59.695Z,241
2022-08-03T13:36:05.835Z,253
2022-08-03T13:37:11.976Z,241
2022-08-03T13:38:18.112Z,258
2022-08-03T13:39:24.241Z,275
2022-08-03T13:40:30.395Z,275
2022-08-03T13:41:36.524Z,270
2022-08-03T13:42:42.653Z,264
2022-08-03T13:43:48.783Z,275
2022-08-03T13:44:54.923Z,258
2022-08-03T13:47:51.617Z,270
2022-08-03T13:48:56.844Z,253
2022-08-03T13:50:02.787Z,253
2022-08-03T13:51:08.703Z,264
2022-08-03T13:52:14.638Z,275
2022-08-03T13:53:20.614Z,258
2022-08-03T13:54:26.495Z,230
2022-08-03T13:55:32.427Z,275
2022-08-03T13:56:38.338Z,275
2022-08-03T13:57:44.265Z,275
2022-08-03T13:58:50.211Z,270
2022-08-03T13:59:56.126Z,275
2022-08-03T14:01:02.049Z,270
2022-08-03T14:02:07.969Z,270
2022-08-03T14:03:13.893Z,270
2022-08-03T14:04:19.829Z,270
2022-08-03T14:05:25.744Z,264
2022-08-03T14:06:31.674Z,264
2022-08-03T14:07:37.625Z,264
2022-08-03T14:08:43.534Z,264
2022-08-03T14:09:49.458Z,258
2022-08-03T14:10:55.395Z,258
2022-08-03T14:12:01.288Z,258
2022-08-03T14:13:07.216Z,225
2022-08-03T14:14:13.154Z,247
2022-08-03T14:15:19.077Z,236
2022-08-03T14:16:25.103Z,219
2022-08-03T14:17:31.090Z,241
2022-08-03T14:18:37.097Z,253
2022-08-03T14:19:43.099Z,253
2022-08-03T14:20:49.116Z,230
2022-08-03T14:21:55.117Z,196
2022-08-03T14:23:01.129Z,236
2022-08-03T14:24:07.143Z,253
2022-08-03T14:25:13.145Z,258
2022-08-03T14:26:19.176Z,258
2022-08-03T14:27:25.179Z,258
2022-08-03T14:28:31.189Z,258
2022-08-03T14:29:37.182Z,258
2022-08-03T14:30:43.335Z,258
2022-08-03T14:31:49.452Z,258
2022-08-03T14:32:55.590Z,258
2022-08-03T14:34:01.742Z,258
2022-08-03T14:35:07.879Z,258
2022-08-03T14:36:14.002Z,253
2022-08-03T14:37:20.117Z,253
2022-08-03T14:38:26.259Z,253
2022-08-03T14:39:32.378Z,253
2022-08-03T14:40:38.516Z,253
2022-08-03T14:41:44.661Z,253
2022-08-03T14:42:50.780Z,253
2022-08-03T14:43:56.919Z,253
2022-08-03T14:46:31.627Z,253
2022-08-03T14:47:36.900Z,253
2022-08-03T14:48:42.849Z,247
2022-08-03T14:50:10.265Z,253
2022-08-03T14:50:54.734Z,247
2022-08-03T14:52:00.673Z,247
2022-08-03T14:53:06.608Z,247
2022-08-03T14:54:12.545Z,247
2022-08-03T14:55:18.499Z,247
2022-08-03T14:56:24.422Z,247
2022-08-03T14:57:30.355Z,247
2022-08-03T14:58:36.300Z,247
2022-08-03T14:59:42.233Z,247
2022-08-03T15:00:48.170Z,247
2022-08-03T15:01:54.095Z,253
2022-08-03T15:03:00.030Z,191
2022-08-03T15:04:05.956Z,151
2022-08-03T15:05:11.896Z,174
2022-08-03T15:06:17.828Z,135
2022-08-03T15:07:23.760Z,157
2022-08-03T15:08:29.683Z,146
2022-08-03T15:09:35.615Z,174
2022-08-03T15:10:41.557Z,236
2022-08-03T15:11:47.493Z,241
2022-08-03T15:12:53.692Z,247
2022-08-03T15:13:59.386Z,247
2022-08-03T15:15:05.389Z,247
2022-08-03T15:16:11.410Z,253
2022-08-03T15:17:17.425Z,253
2022-08-03T15:18:23.486Z,180
2022-08-03T15:19:29.461Z,225
2022-08-03T15:20:35.483Z,180
2022-08-03T15:21:41.503Z,168
2022-08-03T15:22:47.506Z,247
2022-08-03T15:23:53.526Z,236
2022-08-03T15:24:59.538Z,247
2022-08-03T15:26:05.560Z,241
2022-08-03T15:27:11.580Z,219
2022-08-03T15:28:17.606Z,180
2022-08-03T15:29:23.761Z,230
2022-08-03T15:30:29.917Z,247
2022-08-03T15:31:36.062Z,157
2022-08-03T15:32:42.231Z,225
2022-08-03T15:33:48.341Z,241
2022-08-03T15:34:54.490Z,219
2022-08-03T15:36:00.622Z,168
2022-08-03T15:37:06.783Z,140